sensor_id;sensor_type;location;lat;lon;timestamp;P1;durP1;ratioP1;P2;durP2;ratioP2
56181;SDS011;51963;46.052;14.544;2023-07-09T00:04:44;9.15;;;6.25;;
56181;SDS011;51963;46.052;14.544;2023-07-09T00:07:15;11.50;;;6.60;;
56181;SDS011;51963;46.052;14.544;2023-07-09T00:09:54;8.43;;;5.85;;
56181;SDS011;51963;46.052;14.544;2023-07-09T00:12:21;9.60;;;6.22;;
56181;SDS011;51963;46.052;14.544;2023-07-09T00:14:47;12.02;;;6.35;;
56181;SDS011;51963;46.052;14.544;2023-07-09T00:19:50;12.10;;;6.45;;
56181;SDS011;51963;46.052;14.544;2023-07-09T00:22:17;10.00;;;6.45;;
56181;SDS011;51963;46.052;14.544;2023-07-09T00:24:44;11.52;;;7.07;;
56181;SDS011;51963;46.052;14.544;2023-07-09T00:27:19;13.15;;;6.85;;
56181;SDS011;51963;46.052;14.544;2023-07-09T00:29:46;10.07;;;6.72;;
56181;SDS011;51963;46.052;14.544;2023-07-09T00:32:13;10.23;;;6.40;;
56181;SDS011;51963;46.052;14.544;2023-07-09T00:34:49;13.88;;;7.25;;
56181;SDS011;51963;46.052;14.544;2023-07-09T00:37:17;13.73;;;8.60;;
56181;SDS011;51963;46.052;14.544;2023-07-09T00:39:46;17.38;;;9.02;;
56181;SDS011;51963;46.052;14.544;2023-07-09T00:42:18;17.20;;;9.73;;
56181;SDS011;51963;46.052;14.544;2023-07-09T00:44:47;12.32;;;7.70;;
56181;SDS011;51963;46.052;14.544;2023-07-09T00:47:35;19.83;;;11.60;;
56181;SDS011;51963;46.052;14.544;2023-07-09T00:50:14;11.85;;;7.72;;
56181;SDS011;51963;46.052;14.544;2023-07-09T00:52:50;13.48;;;8.95;;
56181;SDS011;51963;46.052;14.544;2023-07-09T00:55:21;16.92;;;10.40;;
56181;SDS011;51963;46.052;14.544;2023-07-09T00:57:51;13.38;;;7.82;;
56181;SDS011;51963;46.052;14.544;2023-07-09T01:00:25;10.55;;;7.15;;
56181;SDS011;51963;46.052;14.544;2023-07-09T01:02:58;12.98;;;6.85;;
56181;SDS011;51963;46.052;14.544;2023-07-09T01:05:24;10.20;;;7.05;;
56181;SDS011;51963;46.052;14.544;2023-07-09T01:07:50;24.33;;;14.15;;
56181;SDS011;51963;46.052;14.544;2023-07-09T01:10:18;15.10;;;10.13;;
56181;SDS011;51963;46.052;14.544;2023-07-09T01:12:45;11.10;;;7.95;;
56181;SDS011;51963;46.052;14.544;2023-07-09T01:15:14;14.48;;;8.68;;
56181;SDS011;51963;46.052;14.544;2023-07-09T01:17:40;10.88;;;6.90;;
56181;SDS011;51963;46.052;14.544;2023-07-09T01:20:14;9.00;;;6.45;;
56181;SDS011;51963;46.052;14.544;2023-07-09T01:22:41;10.82;;;6.85;;
56181;SDS011;51963;46.052;14.544;2023-07-09T01:25:07;13.27;;;7.95;;
56181;SDS011;51963;46.052;14.544;2023-07-09T01:27:43;8.60;;;6.55;;
56181;SDS011;51963;46.052;14.544;2023-07-09T01:30:44;9.63;;;6.97;;
56181;SDS011;51963;46.052;14.544;2023-07-09T01:33:07;11.85;;;8.38;;
56181;SDS011;51963;46.052;14.544;2023-07-09T01:35:36;11.52;;;8.27;;
56181;SDS011;51963;46.052;14.544;2023-07-09T01:38:06;13.30;;;8.63;;
56181;SDS011;51963;46.052;14.544;2023-07-09T01:40:34;14.82;;;8.35;;
56181;SDS011;51963;46.052;14.544;2023-07-09T01:43:01;12.27;;;7.90;;
56181;SDS011;51963;46.052;14.544;2023-07-09T01:45:34;9.85;;;7.10;;
56181;SDS011;51963;46.052;14.544;2023-07-09T01:48:04;12.27;;;7.88;;
56181;SDS011;51963;46.052;14.544;2023-07-09T01:50:32;14.10;;;9.60;;
56181;SDS011;51963;46.052;14.544;2023-07-09T01:52:58;12.75;;;8.77;;
56181;SDS011;51963;46.052;14.544;2023-07-09T01:55:24;14.02;;;8.60;;
56181;SDS011;51963;46.052;14.544;2023-07-09T01:57:50;16.02;;;9.43;;
56181;SDS011;51963;46.052;14.544;2023-07-09T02:00:20;12.15;;;8.55;;
56181;SDS011;51963;46.052;14.544;2023-07-09T02:02:47;13.07;;;9.48;;
56181;SDS011;51963;46.052;14.544;2023-07-09T02:05:15;15.73;;;9.77;;
56181;SDS011;51963;46.052;14.544;2023-07-09T02:07:44;14.40;;;10.10;;
56181;SDS011;51963;46.052;14.544;2023-07-09T02:10:10;12.95;;;9.60;;
56181;SDS011;51963;46.052;14.544;2023-07-09T02:12:37;13.57;;;9.63;;
56181;SDS011;51963;46.052;14.544;2023-07-09T02:15:03;14.40;;;9.38;;
56181;SDS011;51963;46.052;14.544;2023-07-09T02:17:30;12.97;;;9.37;;
56181;SDS011;51963;46.052;14.544;2023-07-09T02:19:58;11.65;;;8.50;;
56181;SDS011;51963;46.052;14.544;2023-07-09T02:22:24;14.68;;;9.10;;
56181;SDS011;51963;46.052;14.544;2023-07-09T02:24:52;15.50;;;9.35;;
56181;SDS011;51963;46.052;14.544;2023-07-09T02:27:19;14.02;;;8.98;;
56181;SDS011;51963;46.052;14.544;2023-07-09T02:32:19;18.30;;;9.38;;
56181;SDS011;51963;46.052;14.544;2023-07-09T02:34:47;13.40;;;8.65;;
56181;SDS011;51963;46.052;14.544;2023-07-09T02:37:17;13.40;;;8.75;;
56181;SDS011;51963;46.052;14.544;2023-07-09T02:39:43;14.98;;;10.43;;
56181;SDS011;51963;46.052;14.544;2023-07-09T02:42:10;14.48;;;10.02;;
56181;SDS011;51963;46.052;14.544;2023-07-09T02:44:38;16.48;;;10.02;;
56181;SDS011;51963;46.052;14.544;2023-07-09T02:47:04;13.73;;;10.18;;
56181;SDS011;51963;46.052;14.544;2023-07-09T02:49:30;14.52;;;10.20;;
56181;SDS011;51963;46.052;14.544;2023-07-09T02:52:00;13.70;;;9.35;;
56181;SDS011;51963;46.052;14.544;2023-07-09T02:54:27;13.70;;;8.98;;
56181;SDS011;51963;46.052;14.544;2023-07-09T02:56:52;13.45;;;8.50;;
56181;SDS011;51963;46.052;14.544;2023-07-09T02:59:18;13.50;;;8.77;;
56181;SDS011;51963;46.052;14.544;2023-07-09T03:01:45;15.43;;;9.30;;
56181;SDS011;51963;46.052;14.544;2023-07-09T03:04:13;12.70;;;8.57;;
56181;SDS011;51963;46.052;14.544;2023-07-09T03:06:39;12.13;;;8.27;;
56181;SDS011;51963;46.052;14.544;2023-07-09T03:09:05;11.60;;;8.38;;
56181;SDS011;51963;46.052;14.544;2023-07-09T03:11:33;13.63;;;8.70;;
56181;SDS011;51963;46.052;14.544;2023-07-09T03:14:00;12.80;;;8.30;;
56181;SDS011;51963;46.052;14.544;2023-07-09T03:16:27;13.10;;;8.65;;
56181;SDS011;51963;46.052;14.544;2023-07-09T03:18:55;12.95;;;8.85;;
56181;SDS011;51963;46.052;14.544;2023-07-09T03:21:21;12.07;;;8.40;;
56181;SDS011;51963;46.052;14.544;2023-07-09T03:23:48;15.17;;;8.63;;
56181;SDS011;51963;46.052;14.544;2023-07-09T03:26:16;11.55;;;8.63;;
56181;SDS011;51963;46.052;14.544;2023-07-09T03:28:42;13.63;;;9.00;;
56181;SDS011;51963;46.052;14.544;2023-07-09T03:31:08;12.93;;;8.80;;
56181;SDS011;51963;46.052;14.544;2023-07-09T03:33:34;14.35;;;9.57;;
56181;SDS011;51963;46.052;14.544;2023-07-09T03:36:02;12.70;;;8.52;;
56181;SDS011;51963;46.052;14.544;2023-07-09T03:38:29;13.88;;;8.98;;
56181;SDS011;51963;46.052;14.544;2023-07-09T03:40:56;12.65;;;8.27;;
56181;SDS011;51963;46.052;14.544;2023-07-09T03:43:22;10.50;;;8.23;;
56181;SDS011;51963;46.052;14.544;2023-07-09T03:45:49;11.85;;;8.50;;
56181;SDS011;51963;46.052;14.544;2023-07-09T03:48:16;12.75;;;8.23;;
56181;SDS011;51963;46.052;14.544;2023-07-09T03:50:43;11.73;;;7.83;;
56181;SDS011;51963;46.052;14.544;2023-07-09T03:53:12;12.65;;;7.93;;
56181;SDS011;51963;46.052;14.544;2023-07-09T03:55:39;11.73;;;8.13;;
56181;SDS011;51963;46.052;14.544;2023-07-09T03:58:05;10.52;;;7.53;;
56181;SDS011;51963;46.052;14.544;2023-07-09T04:00:31;9.48;;;6.85;;
56181;SDS011;51963;46.052;14.544;2023-07-09T04:02:57;11.02;;;7.55;;
56181;SDS011;51963;46.052;14.544;2023-07-09T04:05:24;10.85;;;7.80;;
56181;SDS011;51963;46.052;14.544;2023-07-09T04:07:50;11.82;;;7.63;;
56181;SDS011;51963;46.052;14.544;2023-07-09T04:10:18;11.05;;;8.10;;
56181;SDS011;51963;46.052;14.544;2023-07-09T04:12:44;12.07;;;8.18;;
56181;SDS011;51963;46.052;14.544;2023-07-09T04:15:13;11.18;;;8.35;;
56181;SDS011;51963;46.052;14.544;2023-07-09T04:17:39;11.25;;;7.75;;
56181;SDS011;51963;46.052;14.544;2023-07-09T04:20:06;14.07;;;9.10;;
56181;SDS011;51963;46.052;14.544;2023-07-09T04:22:34;13.40;;;8.77;;
56181;SDS011;51963;46.052;14.544;2023-07-09T04:25:01;14.13;;;8.98;;
56181;SDS011;51963;46.052;14.544;2023-07-09T04:29:56;12.85;;;9.65;;
56181;SDS011;51963;46.052;14.544;2023-07-09T04:32:22;13.95;;;8.80;;
56181;SDS011;51963;46.052;14.544;2023-07-09T04:34:48;13.13;;;9.50;;
56181;SDS011;51963;46.052;14.544;2023-07-09T04:37:14;13.02;;;7.35;;
56181;SDS011;51963;46.052;14.544;2023-07-09T04:39:44;11.95;;;8.27;;
56181;SDS011;51963;46.052;14.544;2023-07-09T04:42:10;13.10;;;7.50;;
56181;SDS011;51963;46.052;14.544;2023-07-09T04:47:06;11.73;;;7.60;;
56181;SDS011;51963;46.052;14.544;2023-07-09T04:49:34;10.65;;;6.82;;
56181;SDS011;51963;46.052;14.544;2023-07-09T04:52:00;9.10;;;6.85;;
56181;SDS011;51963;46.052;14.544;2023-07-09T04:54:26;9.70;;;6.55;;
56181;SDS011;51963;46.052;14.544;2023-07-09T04:56:52;9.63;;;6.63;;
56181;SDS011;51963;46.052;14.544;2023-07-09T04:59:18;10.05;;;7.07;;
56181;SDS011;51963;46.052;14.544;2023-07-09T05:01:47;12.00;;;6.55;;
56181;SDS011;51963;46.052;14.544;2023-07-09T05:04:13;14.75;;;7.10;;
56181;SDS011;51963;46.052;14.544;2023-07-09T05:06:38;13.05;;;6.57;;
56181;SDS011;51963;46.052;14.544;2023-07-09T05:09:05;11.30;;;6.68;;
56181;SDS011;51963;46.052;14.544;2023-07-09T05:11:33;11.00;;;6.40;;
56181;SDS011;51963;46.052;14.544;2023-07-09T05:14:00;9.75;;;6.35;;
56181;SDS011;51963;46.052;14.544;2023-07-09T05:16:26;9.43;;;6.10;;
56181;SDS011;51963;46.052;14.544;2023-07-09T05:18:52;9.35;;;6.95;;
56181;SDS011;51963;46.052;14.544;2023-07-09T05:21:18;11.48;;;7.22;;
56181;SDS011;51963;46.052;14.544;2023-07-09T05:23:43;11.10;;;7.40;;
56181;SDS011;51963;46.052;14.544;2023-07-09T05:28:37;10.60;;;6.78;;
56181;SDS011;51963;46.052;14.544;2023-07-09T05:31:03;11.18;;;6.75;;
56181;SDS011;51963;46.052;14.544;2023-07-09T05:33:30;11.40;;;7.23;;
56181;SDS011;51963;46.052;14.544;2023-07-09T05:35:56;10.90;;;7.68;;
56181;SDS011;51963;46.052;14.544;2023-07-09T05:38:22;11.90;;;7.63;;
56181;SDS011;51963;46.052;14.544;2023-07-09T05:40:48;11.20;;;7.85;;
56181;SDS011;51963;46.052;14.544;2023-07-09T05:43:14;12.52;;;8.60;;
56181;SDS011;51963;46.052;14.544;2023-07-09T05:45:40;14.80;;;8.25;;
56181;SDS011;51963;46.052;14.544;2023-07-09T05:48:06;13.88;;;7.60;;
56181;SDS011;51963;46.052;14.544;2023-07-09T05:50:32;11.25;;;7.60;;
56181;SDS011;51963;46.052;14.544;2023-07-09T05:53:00;13.18;;;8.38;;
56181;SDS011;51963;46.052;14.544;2023-07-09T05:55:26;12.10;;;8.05;;
56181;SDS011;51963;46.052;14.544;2023-07-09T05:57:52;16.15;;;8.95;;
56181;SDS011;51963;46.052;14.544;2023-07-09T06:00:19;13.87;;;8.33;;
56181;SDS011;51963;46.052;14.544;2023-07-09T06:02:45;9.73;;;7.90;;
56181;SDS011;51963;46.052;14.544;2023-07-09T06:05:10;11.90;;;7.70;;
56181;SDS011;51963;46.052;14.544;2023-07-09T06:07:37;12.30;;;8.43;;
56181;SDS011;51963;46.052;14.544;2023-07-09T06:10:04;14.52;;;8.65;;
56181;SDS011;51963;46.052;14.544;2023-07-09T06:12:31;13.32;;;8.48;;
56181;SDS011;51963;46.052;14.544;2023-07-09T06:14:57;13.25;;;8.60;;
56181;SDS011;51963;46.052;14.544;2023-07-09T06:17:22;13.02;;;9.15;;
56181;SDS011;51963;46.052;14.544;2023-07-09T06:19:48;16.83;;;8.85;;
56181;SDS011;51963;46.052;14.544;2023-07-09T06:22:16;20.10;;;10.18;;
56181;SDS011;51963;46.052;14.544;2023-07-09T06:24:42;14.23;;;9.70;;
56181;SDS011;51963;46.052;14.544;2023-07-09T06:27:09;13.07;;;9.05;;
56181;SDS011;51963;46.052;14.544;2023-07-09T06:29:35;15.48;;;8.68;;
56181;SDS011;51963;46.052;14.544;2023-07-09T06:32:00;15.60;;;9.25;;
56181;SDS011;51963;46.052;14.544;2023-07-09T06:34:26;13.65;;;8.52;;
56181;SDS011;51963;46.052;14.544;2023-07-09T06:36:55;17.92;;;9.77;;
56181;SDS011;51963;46.052;14.544;2023-07-09T06:43:21;12.82;;;8.63;;
56181;SDS011;51963;46.052;14.544;2023-07-09T06:45:52;14.23;;;9.68;;
56181;SDS011;51963;46.052;14.544;2023-07-09T06:48:19;13.35;;;9.00;;
56181;SDS011;51963;46.052;14.544;2023-07-09T06:50:46;12.90;;;8.38;;
56181;SDS011;51963;46.052;14.544;2023-07-09T06:53:18;13.70;;;8.73;;
56181;SDS011;51963;46.052;14.544;2023-07-09T06:55:45;13.43;;;8.90;;
56181;SDS011;51963;46.052;14.544;2023-07-09T07:00:38;11.13;;;8.27;;
56181;SDS011;51963;46.052;14.544;2023-07-09T07:03:05;13.02;;;8.60;;
56181;SDS011;51963;46.052;14.544;2023-07-09T07:05:31;11.20;;;8.30;;
56181;SDS011;51963;46.052;14.544;2023-07-09T07:08:01;9.25;;;6.93;;
56181;SDS011;51963;46.052;14.544;2023-07-09T07:10:32;15.45;;;8.32;;
56181;SDS011;51963;46.052;14.544;2023-07-09T07:12:58;10.27;;;6.90;;
56181;SDS011;51963;46.052;14.544;2023-07-09T07:15:26;11.30;;;8.18;;
56181;SDS011;51963;46.052;14.544;2023-07-09T07:17:54;10.82;;;7.90;;
56181;SDS011;51963;46.052;14.544;2023-07-09T07:20:20;10.82;;;8.40;;
56181;SDS011;51963;46.052;14.544;2023-07-09T07:22:46;10.95;;;7.63;;
56181;SDS011;51963;46.052;14.544;2023-07-09T07:25:12;10.43;;;7.28;;
56181;SDS011;51963;46.052;14.544;2023-07-09T07:27:38;9.93;;;6.57;;
56181;SDS011;51963;46.052;14.544;2023-07-09T07:30:04;9.95;;;7.00;;
56181;SDS011;51963;46.052;14.544;2023-07-09T07:32:34;10.98;;;7.05;;
56181;SDS011;51963;46.052;14.544;2023-07-09T07:35:07;10.77;;;8.00;;
56181;SDS011;51963;46.052;14.544;2023-07-09T07:37:35;11.38;;;7.75;;
56181;SDS011;51963;46.052;14.544;2023-07-09T07:40:01;12.60;;;7.90;;
56181;SDS011;51963;46.052;14.544;2023-07-09T07:42:29;12.15;;;7.07;;
56181;SDS011;51963;46.052;14.544;2023-07-09T07:44:55;13.88;;;7.50;;
56181;SDS011;51963;46.052;14.544;2023-07-09T07:47:21;9.07;;;7.25;;
56181;SDS011;51963;46.052;14.544;2023-07-09T07:49:46;12.45;;;8.15;;
56181;SDS011;51963;46.052;14.544;2023-07-09T07:52:12;10.25;;;8.30;;
56181;SDS011;51963;46.052;14.544;2023-07-09T07:54:38;12.95;;;8.10;;
56181;SDS011;51963;46.052;14.544;2023-07-09T07:57:04;10.52;;;8.23;;
56181;SDS011;51963;46.052;14.544;2023-07-09T07:59:31;13.70;;;8.52;;
56181;SDS011;51963;46.052;14.544;2023-07-09T08:02:00;9.88;;;7.88;;
56181;SDS011;51963;46.052;14.544;2023-07-09T08:04:26;14.77;;;8.13;;
56181;SDS011;51963;46.052;14.544;2023-07-09T08:06:52;11.23;;;8.25;;
56181;SDS011;51963;46.052;14.544;2023-07-09T08:09:18;12.40;;;8.50;;
56181;SDS011;51963;46.052;14.544;2023-07-09T08:11:44;12.05;;;8.02;;
56181;SDS011;51963;46.052;14.544;2023-07-09T08:14:14;13.88;;;8.60;;
56181;SDS011;51963;46.052;14.544;2023-07-09T08:16:40;11.30;;;8.23;;
56181;SDS011;51963;46.052;14.544;2023-07-09T08:19:06;10.27;;;8.35;;
56181;SDS011;51963;46.052;14.544;2023-07-09T08:21:32;11.18;;;8.38;;
56181;SDS011;51963;46.052;14.544;2023-07-09T08:23:58;12.45;;;8.80;;
56181;SDS011;51963;46.052;14.544;2023-07-09T08:26:23;10.93;;;8.35;;
56181;SDS011;51963;46.052;14.544;2023-07-09T08:28:50;12.18;;;9.05;;
56181;SDS011;51963;46.052;14.544;2023-07-09T08:31:18;12.30;;;9.55;;
56181;SDS011;51963;46.052;14.544;2023-07-09T08:33:44;13.45;;;8.95;;
56181;SDS011;51963;46.052;14.544;2023-07-09T08:36:10;12.13;;;8.68;;
56181;SDS011;51963;46.052;14.544;2023-07-09T08:38:38;11.20;;;8.80;;
56181;SDS011;51963;46.052;14.544;2023-07-09T08:43:39;11.90;;;8.25;;
56181;SDS011;51963;46.052;14.544;2023-07-09T08:48:48;12.38;;;7.45;;
56181;SDS011;51963;46.052;14.544;2023-07-09T08:51:19;11.32;;;7.55;;
56181;SDS011;51963;46.052;14.544;2023-07-09T08:53:57;9.88;;;7.45;;
56181;SDS011;51963;46.052;14.544;2023-07-09T08:56:25;11.10;;;7.72;;
56181;SDS011;51963;46.052;14.544;2023-07-09T08:58:53;11.70;;;8.38;;
56181;SDS011;51963;46.052;14.544;2023-07-09T09:01:44;10.55;;;7.72;;
56181;SDS011;51963;46.052;14.544;2023-07-09T09:04:31;10.23;;;7.40;;
56181;SDS011;51963;46.052;14.544;2023-07-09T09:09:40;11.00;;;7.22;;
56181;SDS011;51963;46.052;14.544;2023-07-09T09:14:44;9.77;;;7.72;;
56181;SDS011;51963;46.052;14.544;2023-07-09T09:17:18;9.50;;;6.90;;
56181;SDS011;51963;46.052;14.544;2023-07-09T09:19:53;11.57;;;7.05;;
56181;SDS011;51963;46.052;14.544;2023-07-09T09:22:21;9.40;;;6.82;;
56181;SDS011;51963;46.052;14.544;2023-07-09T09:27:59;8.98;;;6.75;;
56181;SDS011;51963;46.052;14.544;2023-07-09T09:30:26;9.20;;;7.38;;
56181;SDS011;51963;46.052;14.544;2023-07-09T09:35:25;12.05;;;6.90;;
56181;SDS011;51963;46.052;14.544;2023-07-09T09:38:15;10.18;;;6.90;;
56181;SDS011;51963;46.052;14.544;2023-07-09T09:40:45;10.02;;;7.15;;
56181;SDS011;51963;46.052;14.544;2023-07-09T09:43:12;8.88;;;6.47;;
56181;SDS011;51963;46.052;14.544;2023-07-09T09:45:47;8.68;;;7.07;;
56181;SDS011;51963;46.052;14.544;2023-07-09T09:48:28;8.82;;;6.78;;
56181;SDS011;51963;46.052;14.544;2023-07-09T09:50:56;8.43;;;6.70;;
56181;SDS011;51963;46.052;14.544;2023-07-09T09:53:27;8.60;;;6.90;;
56181;SDS011;51963;46.052;14.544;2023-07-09T09:55:55;9.43;;;7.03;;
56181;SDS011;51963;46.052;14.544;2023-07-09T09:58:26;9.27;;;6.85;;
56181;SDS011;51963;46.052;14.544;2023-07-09T10:00:55;10.15;;;6.90;;
56181;SDS011;51963;46.052;14.544;2023-07-09T10:03:32;8.52;;;7.05;;
56181;SDS011;51963;46.052;14.544;2023-07-09T10:06:00;8.63;;;6.78;;
56181;SDS011;51963;46.052;14.544;2023-07-09T10:11:28;8.18;;;6.55;;
56181;SDS011;51963;46.052;14.544;2023-07-09T10:14:00;8.90;;;6.35;;
56181;SDS011;51963;46.052;14.544;2023-07-09T10:16:34;6.70;;;6.05;;
56181;SDS011;51963;46.052;14.544;2023-07-09T10:21:46;8.23;;;6.63;;
56181;SDS011;51963;46.052;14.544;2023-07-09T10:27:12;7.32;;;6.47;;
56181;SDS011;51963;46.052;14.544;2023-07-09T10:35:23;8.18;;;6.22;;
56181;SDS011;51963;46.052;14.544;2023-07-09T10:38:06;9.98;;;6.75;;
56181;SDS011;51963;46.052;14.544;2023-07-09T10:40:43;7.22;;;5.68;;
56181;SDS011;51963;46.052;14.544;2023-07-09T10:43:15;10.70;;;7.55;;
56181;SDS011;51963;46.052;14.544;2023-07-09T10:45:47;8.20;;;6.43;;
56181;SDS011;51963;46.052;14.544;2023-07-09T10:48:33;8.65;;;6.55;;
56181;SDS011;51963;46.052;14.544;2023-07-09T10:51:02;9.18;;;5.85;;
56181;SDS011;51963;46.052;14.544;2023-07-09T10:53:36;7.60;;;5.50;;
56181;SDS011;51963;46.052;14.544;2023-07-09T10:56:10;6.97;;;5.68;;
56181;SDS011;51963;46.052;14.544;2023-07-09T10:58:57;7.75;;;5.65;;
56181;SDS011;51963;46.052;14.544;2023-07-09T11:01:40;8.07;;;5.35;;
56181;SDS011;51963;46.052;14.544;2023-07-09T11:04:58;16.00;;;11.52;;
56181;SDS011;51963;46.052;14.544;2023-07-09T11:07:12;6.57;;;5.03;;
56181;SDS011;51963;46.052;14.544;2023-07-09T11:09:45;7.28;;;5.38;;
56181;SDS011;51963;46.052;14.544;2023-07-09T11:12:13;8.95;;;5.40;;
56181;SDS011;51963;46.052;14.544;2023-07-09T11:15:16;6.13;;;4.90;;
56181;SDS011;51963;46.052;14.544;2023-07-09T11:17:46;5.40;;;4.88;;
56181;SDS011;51963;46.052;14.544;2023-07-09T11:20:26;7.50;;;5.13;;
56181;SDS011;51963;46.052;14.544;2023-07-09T11:23:01;7.28;;;5.28;;
56181;SDS011;51963;46.052;14.544;2023-07-09T11:26:10;9.20;;;4.80;;
56181;SDS011;51963;46.052;14.544;2023-07-09T11:28:54;5.32;;;4.72;;
56181;SDS011;51963;46.052;14.544;2023-07-09T11:31:39;6.80;;;5.63;;
56181;SDS011;51963;46.052;14.544;2023-07-09T11:36:33;5.40;;;4.90;;
56181;SDS011;51963;46.052;14.544;2023-07-09T11:39:01;6.13;;;4.72;;
56181;SDS011;51963;46.052;14.544;2023-07-09T11:41:28;7.20;;;4.78;;
56181;SDS011;51963;46.052;14.544;2023-07-09T11:44:12;5.10;;;4.60;;
56181;SDS011;51963;46.052;14.544;2023-07-09T11:49:27;4.97;;;4.43;;
56181;SDS011;51963;46.052;14.544;2023-07-09T11:52:02;5.72;;;4.85;;
56181;SDS011;51963;46.052;14.544;2023-07-09T11:54:33;5.38;;;4.25;;
56181;SDS011;51963;46.052;14.544;2023-07-09T11:57:01;5.13;;;4.63;;
56181;SDS011;51963;46.052;14.544;2023-07-09T11:59:28;8.80;;;4.47;;
56181;SDS011;51963;46.052;14.544;2023-07-09T12:01:54;6.25;;;4.40;;
56181;SDS011;51963;46.052;14.544;2023-07-09T12:04:25;6.30;;;5.18;;
56181;SDS011;51963;46.052;14.544;2023-07-09T12:07:00;6.97;;;4.72;;
56181;SDS011;51963;46.052;14.544;2023-07-09T12:09:32;4.90;;;4.40;;
56181;SDS011;51963;46.052;14.544;2023-07-09T12:12:02;5.13;;;4.50;;
56181;SDS011;51963;46.052;14.544;2023-07-09T12:14:41;6.60;;;4.63;;
56181;SDS011;51963;46.052;14.544;2023-07-09T12:17:09;6.38;;;5.20;;
56181;SDS011;51963;46.052;14.544;2023-07-09T12:19:35;4.85;;;4.45;;
56181;SDS011;51963;46.052;14.544;2023-07-09T12:22:01;6.00;;;4.65;;
56181;SDS011;51963;46.052;14.544;2023-07-09T12:24:28;5.20;;;4.20;;
56181;SDS011;51963;46.052;14.544;2023-07-09T12:26:58;7.63;;;4.60;;
56181;SDS011;51963;46.052;14.544;2023-07-09T12:29:27;4.82;;;4.32;;
56181;SDS011;51963;46.052;14.544;2023-07-09T12:31:58;5.05;;;4.38;;
56181;SDS011;51963;46.052;14.544;2023-07-09T12:34:24;5.68;;;4.55;;
56181;SDS011;51963;46.052;14.544;2023-07-09T12:39:23;7.75;;;4.60;;
56181;SDS011;51963;46.052;14.544;2023-07-09T12:41:51;5.65;;;3.85;;
56181;SDS011;51963;46.052;14.544;2023-07-09T12:44:24;4.93;;;4.07;;
56181;SDS011;51963;46.052;14.544;2023-07-09T12:46:52;7.10;;;4.53;;
56181;SDS011;51963;46.052;14.544;2023-07-09T12:49:23;5.00;;;4.07;;
56181;SDS011;51963;46.052;14.544;2023-07-09T12:51:57;6.95;;;4.18;;
56181;SDS011;51963;46.052;14.544;2023-07-09T12:54:27;7.28;;;4.47;;
56181;SDS011;51963;46.052;14.544;2023-07-09T12:56:55;6.40;;;4.07;;
56181;SDS011;51963;46.052;14.544;2023-07-09T12:59:25;5.68;;;4.00;;
56181;SDS011;51963;46.052;14.544;2023-07-09T13:02:06;6.22;;;4.18;;
56181;SDS011;51963;46.052;14.544;2023-07-09T13:04:40;4.53;;;4.13;;
56181;SDS011;51963;46.052;14.544;2023-07-09T13:09:49;5.22;;;3.80;;
56181;SDS011;51963;46.052;14.544;2023-07-09T13:12:30;3.92;;;3.50;;
56181;SDS011;51963;46.052;14.544;2023-07-09T13:14:57;4.32;;;3.83;;
56181;SDS011;51963;46.052;14.544;2023-07-09T13:17:30;4.55;;;3.45;;
56181;SDS011;51963;46.052;14.544;2023-07-09T13:19:56;5.35;;;4.18;;
56181;SDS011;51963;46.052;14.544;2023-07-09T13:22:23;6.15;;;3.38;;
56181;SDS011;51963;46.052;14.544;2023-07-09T13:24:50;4.28;;;3.80;;
56181;SDS011;51963;46.052;14.544;2023-07-09T13:27:16;4.38;;;3.97;;
56181;SDS011;51963;46.052;14.544;2023-07-09T13:29:42;6.82;;;4.10;;
56181;SDS011;51963;46.052;14.544;2023-07-09T13:32:09;4.97;;;3.95;;
56181;SDS011;51963;46.052;14.544;2023-07-09T13:34:36;4.88;;;4.00;;
56181;SDS011;51963;46.052;14.544;2023-07-09T13:37:06;5.82;;;3.97;;
56181;SDS011;51963;46.052;14.544;2023-07-09T13:39:41;6.65;;;3.88;;
56181;SDS011;51963;46.052;14.544;2023-07-09T13:42:15;5.03;;;3.47;;
56181;SDS011;51963;46.052;14.544;2023-07-09T13:44:43;6.90;;;3.70;;
56181;SDS011;51963;46.052;14.544;2023-07-09T13:47:15;7.10;;;3.97;;
56181;SDS011;51963;46.052;14.544;2023-07-09T13:49:43;4.00;;;3.60;;
56181;SDS011;51963;46.052;14.544;2023-07-09T13:52:17;5.55;;;3.60;;
56181;SDS011;51963;46.052;14.544;2023-07-09T13:54:45;4.93;;;3.50;;
56181;SDS011;51963;46.052;14.544;2023-07-09T13:57:15;7.28;;;4.18;;
56181;SDS011;51963;46.052;14.544;2023-07-09T13:59:43;6.80;;;4.03;;
56181;SDS011;51963;46.052;14.544;2023-07-09T14:02:27;4.88;;;4.05;;
56181;SDS011;51963;46.052;14.544;2023-07-09T14:04:58;7.53;;;4.25;;
56181;SDS011;51963;46.052;14.544;2023-07-09T14:07:43;4.20;;;3.55;;
56181;SDS011;51963;46.052;14.544;2023-07-09T14:10:13;5.25;;;3.92;;
56181;SDS011;51963;46.052;14.544;2023-07-09T14:12:44;5.47;;;3.80;;
56181;SDS011;51963;46.052;14.544;2023-07-09T14:15:13;5.10;;;3.72;;
56181;SDS011;51963;46.052;14.544;2023-07-09T14:17:41;7.40;;;3.30;;
56181;SDS011;51963;46.052;14.544;2023-07-09T14:22:36;6.80;;;3.50;;
56181;SDS011;51963;46.052;14.544;2023-07-09T14:25:05;5.32;;;3.60;;
56181;SDS011;51963;46.052;14.544;2023-07-09T14:27:32;4.28;;;3.45;;
56181;SDS011;51963;46.052;14.544;2023-07-09T14:29:58;5.88;;;3.38;;
56181;SDS011;51963;46.052;14.544;2023-07-09T14:34:53;6.78;;;3.70;;
56181;SDS011;51963;46.052;14.544;2023-07-09T14:37:18;5.65;;;3.80;;
56181;SDS011;51963;46.052;14.544;2023-07-09T14:39:44;3.80;;;3.22;;
56181;SDS011;51963;46.052;14.544;2023-07-09T14:44:39;3.75;;;3.20;;
56181;SDS011;51963;46.052;14.544;2023-07-09T14:52:13;5.07;;;3.08;;
56181;SDS011;51963;46.052;14.544;2023-07-09T14:54:43;3.70;;;2.75;;
56181;SDS011;51963;46.052;14.544;2023-07-09T14:57:20;4.15;;;2.88;;
56181;SDS011;51963;46.052;14.544;2023-07-09T14:59:47;3.85;;;3.05;;
56181;SDS011;51963;46.052;14.544;2023-07-09T15:02:19;6.32;;;3.00;;
56181;SDS011;51963;46.052;14.544;2023-07-09T15:04:45;5.32;;;3.40;;
56181;SDS011;51963;46.052;14.544;2023-07-09T15:07:12;4.10;;;3.13;;
56181;SDS011;51963;46.052;14.544;2023-07-09T15:09:40;6.22;;;3.30;;
56181;SDS011;51963;46.052;14.544;2023-07-09T15:12:12;8.52;;;3.83;;
56181;SDS011;51963;46.052;14.544;2023-07-09T15:14:42;4.43;;;3.22;;
56181;SDS011;51963;46.052;14.544;2023-07-09T15:17:10;5.63;;;4.03;;
56181;SDS011;51963;46.052;14.544;2023-07-09T15:19:36;4.65;;;3.50;;
56181;SDS011;51963;46.052;14.544;2023-07-09T15:22:02;4.75;;;3.00;;
56181;SDS011;51963;46.052;14.544;2023-07-09T15:24:32;5.65;;;3.60;;
56181;SDS011;51963;46.052;14.544;2023-07-09T15:27:01;6.55;;;3.80;;
56181;SDS011;51963;46.052;14.544;2023-07-09T15:29:28;7.25;;;3.60;;
56181;SDS011;51963;46.052;14.544;2023-07-09T15:31:56;6.82;;;3.78;;
56181;SDS011;51963;46.052;14.544;2023-07-09T15:34:24;5.53;;;3.90;;
56181;SDS011;51963;46.052;14.544;2023-07-09T15:36:50;6.73;;;4.00;;
56181;SDS011;51963;46.052;14.544;2023-07-09T15:39:18;7.60;;;4.10;;
56181;SDS011;51963;46.052;14.544;2023-07-09T15:41:46;5.32;;;4.15;;
56181;SDS011;51963;46.052;14.544;2023-07-09T15:44:27;6.57;;;4.18;;
56181;SDS011;51963;46.052;14.544;2023-07-09T15:46:54;6.72;;;4.03;;
56181;SDS011;51963;46.052;14.544;2023-07-09T15:49:21;4.40;;;3.88;;
56181;SDS011;51963;46.052;14.544;2023-07-09T15:51:48;7.47;;;4.22;;
56181;SDS011;51963;46.052;14.544;2023-07-09T15:54:14;7.72;;;4.38;;